Pagrindinis puslapis
METAR-TAF:

METAR-TAF

Oro uostai :

Valensija, Venesuela

platuma: 10-10N, ilguma: 067-56W, Aukštis: 430 m

Dabartinis oras

Ataskaita buvo paskelbta 1 valandą ir 15 minutes, ne 03:02 UTC
Vėjas 7 kt iš Šiaurės/Šiaurės Vakarų
Temperatūra 25°C
Drėgmė 57%
Slėgis 1014 hPa

METAR: SVVA 220302Z AUTO 34007KT NCD 25/16 Q1014

Laikas: 00:17 (04:17 UTC)


TAF: trūkstamas

Orai ataskaitas ir orų prognozės (METAR, TAF).

turimą stotys yra geltonos ir raudonos taškus žemėlapyje.

Perkelti pele per norėdami pamatyti stoties vardą.

Tada spustelėkite, norėdami matyti oro stebėjimo ir prognozės.

Norėdami pakeisti žemėlapį: spustelėkite ant žalios mygtukų su juodo kryžiaus žemyn,; žalią mygtuką su brūkšneliu, jei norite nutolinti; arba žalių rodyklių gretimoms žemėlapius.


METAR-TAF: